createdAt,value
2019-04-05T00:02:20.072Z,10.30
2019-04-05T00:04:50.468Z,10.30
2019-04-05T00:07:21.745Z,10.40
2019-04-05T00:09:51.928Z,10.40
2019-04-05T00:12:21.905Z,10.40
2019-04-05T00:14:52.698Z,10.40
2019-04-05T00:17:23.864Z,10.40
2019-04-05T00:19:54.095Z,10.40
2019-04-05T00:22:24.238Z,10.40
2019-04-05T00:24:57.290Z,10.30
2019-04-05T00:27:28.515Z,10.30
2019-04-05T00:29:58.664Z,10.40
2019-04-05T00:32:28.673Z,10.40
2019-04-05T00:34:58.916Z,10.30
2019-04-05T00:37:31.448Z,10.30
2019-04-05T00:40:01.552Z,10.30
2019-04-05T00:42:31.599Z,10.30
2019-04-05T00:45:01.804Z,10.30
2019-04-05T00:47:32.976Z,10.30
2019-04-05T00:50:03.808Z,10.30
2019-04-05T00:52:33.946Z,10.30
2019-04-05T00:55:05.328Z,10.30
2019-04-05T00:57:36.523Z,10.30
2019-04-05T01:00:07.804Z,10.20
2019-04-05T01:02:38.484Z,10.20
2019-04-05T01:05:08.976Z,10.20
2019-04-05T01:07:40.379Z,10.20
2019-04-05T01:10:11.128Z,10.20
2019-04-05T01:12:41.981Z,10.20
2019-04-05T01:15:12.481Z,10.20
2019-04-05T01:17:43.721Z,10.20
2019-04-05T01:20:14.641Z,10.20
2019-04-05T01:22:46.593Z,10.20
2019-04-05T01:25:16.798Z,10.20
2019-04-05T01:27:48.579Z,10.10
2019-04-05T01:30:19.082Z,10.10
2019-04-05T01:32:49.354Z,10.10
2019-04-05T01:35:19.614Z,10.10
2019-04-05T01:37:52.569Z,10.20
2019-04-05T01:40:23.253Z,10.20
2019-04-05T01:42:53.671Z,10.20
2019-04-05T01:45:24.090Z,10.20
2019-04-05T01:47:55.184Z,10.30
2019-04-05T01:50:25.841Z,10.20
2019-04-05T01:52:55.921Z,10.20
2019-04-05T01:55:26.134Z,10.20
2019-04-05T01:57:57.419Z,10.20
2019-04-05T02:00:27.596Z,10.30
2019-04-05T02:02:57.932Z,10.30
2019-04-05T02:05:28.318Z,10.20
2019-04-05T02:07:59.649Z,10.10
2019-04-05T02:10:29.924Z,10.10
2019-04-05T02:13:00.102Z,10.10
2019-04-05T02:15:32.608Z,10.10
2019-04-05T02:18:04.088Z,10.10
2019-04-05T02:20:34.259Z,10.10
2019-04-05T02:23:04.451Z,10.10
2019-04-05T02:25:34.650Z,10.10
2019-04-05T02:28:05.719Z,10.10
2019-04-05T02:30:36.064Z,10.10
2019-04-05T02:33:06.704Z,10.10
2019-04-05T02:35:39.042Z,10.10
2019-04-05T02:38:11.409Z,10.20
2019-04-05T02:40:42.957Z,10.20
2019-04-05T02:43:16.182Z,10.20
2019-04-05T02:45:53.314Z,10.20
2019-04-05T02:48:26.705Z,10.20
2019-04-05T02:51:01.754Z,10.20
2019-04-05T02:53:34.415Z,10.20
2019-04-05T02:56:05.772Z,10.20
2019-04-05T02:58:37.056Z,10.20
2019-04-05T03:01:07.748Z,10.10
2019-04-05T03:03:38.298Z,10.20
2019-04-05T03:06:09.974Z,10.20
2019-04-05T03:08:42.302Z,10.10
2019-04-05T03:11:14.388Z,10.10
2019-04-05T03:13:50.472Z,10.00
2019-04-05T03:16:40.210Z,10.00
2019-04-05T03:19:13.640Z,9.90
2019-04-05T03:21:46.863Z,9.90
2019-04-05T03:24:19.840Z,9.90
2019-04-05T03:26:54.034Z,9.90
2019-04-05T03:29:24.694Z,9.80
2019-04-05T03:31:55.065Z,9.80
2019-04-05T03:34:25.863Z,9.90
2019-04-05T03:36:57.082Z,9.90
2019-04-05T03:39:28.805Z,9.90
2019-04-05T03:41:59.291Z,9.90
2019-04-05T03:44:29.795Z,9.90
2019-04-05T03:47:01.135Z,9.90
2019-04-05T03:49:31.593Z,10.00
2019-04-05T03:52:06.812Z,10.00
2019-04-05T03:54:38.077Z,10.00
2019-04-05T03:57:08.791Z,10.00
2019-04-05T03:59:39.707Z,10.00
2019-04-05T04:02:10.835Z,9.90
2019-04-05T04:04:41.897Z,9.90
2019-04-05T04:07:14.021Z,9.90
2019-04-05T04:09:44.123Z,9.90
2019-04-05T04:12:14.700Z,9.90
2019-04-05T04:14:45.338Z,9.90
2019-04-05T04:17:16.912Z,9.90
2019-04-05T04:19:50.532Z,9.90
2019-04-05T04:22:23.489Z,9.90
2019-04-05T04:24:53.682Z,10.00
2019-04-05T04:27:25.306Z,10.00
2019-04-05T04:29:56.263Z,10.00
2019-04-05T04:32:26.737Z,10.00
2019-04-05T04:34:57.422Z,10.00
2019-04-05T04:37:29.574Z,10.10
2019-04-05T04:39:59.766Z,10.00
2019-04-05T04:42:30.454Z,10.10
2019-04-05T04:45:11.416Z,10.10
2019-04-05T04:47:35.845Z,10.00
2019-04-05T04:50:07.755Z,10.00
2019-04-05T04:52:38.191Z,10.00
2019-04-05T04:55:08.756Z,10.10
2019-04-05T04:57:45.794Z,10.00
2019-04-05T05:00:16.464Z,10.10
2019-04-05T05:02:46.922Z,10.00
2019-04-05T05:05:19.074Z,10.00
2019-04-05T05:07:52.154Z,10.10
2019-04-05T05:10:22.734Z,10.00
2019-04-05T05:12:52.957Z,10.00
2019-04-05T05:15:23.199Z,9.90
2019-04-05T05:17:58.870Z,9.90
2019-04-05T05:20:28.090Z,10.00
2019-04-05T05:22:58.706Z,10.00
2019-04-05T05:25:28.985Z,10.00
2019-04-05T05:28:07.008Z,9.90
2019-04-05T05:30:36.953Z,9.90
2019-04-05T05:33:07.563Z,9.90
2019-04-05T05:35:37.835Z,10.00
2019-04-05T05:38:10.895Z,10.00
2019-04-05T05:40:42.122Z,10.10
2019-04-05T05:43:12.200Z,10.10
2019-04-05T05:45:42.260Z,10.10
2019-04-05T05:48:15.170Z,10.20
2019-04-05T05:50:45.344Z,10.20
2019-04-05T05:53:15.665Z,10.20
2019-04-05T05:55:45.626Z,10.30
2019-04-05T05:58:25.365Z,10.30
2019-04-05T06:00:54.946Z,10.30
2019-04-05T06:03:25.116Z,10.30
2019-04-05T06:06:04.350Z,10.40
2019-04-05T06:08:29.096Z,10.40
2019-04-05T06:10:58.395Z,10.40
2019-04-05T06:13:28.585Z,10.40
2019-04-05T06:15:58.647Z,10.50
2019-04-05T06:18:31.313Z,10.60
2019-04-05T06:21:03.469Z,10.60
2019-04-05T06:23:34.266Z,10.70
2019-04-05T06:26:05.178Z,10.80
2019-04-05T06:28:35.313Z,10.80
2019-04-05T06:31:05.902Z,10.90
2019-04-05T06:33:36.544Z,11.00
2019-04-05T06:36:06.636Z,11.00
2019-04-05T06:38:36.818Z,11.00
2019-04-05T06:41:07.821Z,11.10
2019-04-05T06:43:37.954Z,11.10
2019-04-05T06:46:10.811Z,11.10
2019-04-05T06:48:41.028Z,11.10
2019-04-05T06:51:11.572Z,11.10
2019-04-05T06:53:41.898Z,11.20
2019-04-05T06:56:11.898Z,11.20
2019-04-05T06:58:42.063Z,11.20
2019-04-05T07:01:12.115Z,11.20
2019-04-05T07:03:42.760Z,11.30
2019-04-05T07:06:13.311Z,11.30
2019-04-05T07:08:53.153Z,11.30
2019-04-05T07:11:14.963Z,11.40
2019-04-05T07:13:45.042Z,11.50
2019-04-05T07:16:15.087Z,11.50
2019-04-05T07:18:45.866Z,11.60
2019-04-05T07:21:17.472Z,11.70
2019-04-05T07:23:47.803Z,11.80
2019-04-05T07:26:20.979Z,11.80
2019-04-05T07:28:51.190Z,11.90
2019-04-05T07:31:21.812Z,12.00
2019-04-05T07:33:52.551Z,12.20
2019-04-05T07:36:23.599Z,12.30
2019-04-05T07:38:54.251Z,12.50
2019-04-05T07:41:25.882Z,12.80
2019-04-05T07:43:56.590Z,13.20
2019-04-05T07:46:27.153Z,13.40
2019-04-05T07:48:57.921Z,13.60
2019-04-05T07:51:28.535Z,13.80
2019-04-05T07:53:59.271Z,13.90
2019-04-05T07:56:31.132Z,14.10
2019-04-05T07:59:01.755Z,14.20
2019-04-05T08:01:32.393Z,14.30
2019-04-05T08:04:03.178Z,14.40
2019-04-05T08:06:37.667Z,14.60
2019-04-05T08:09:11.065Z,14.60
2019-04-05T08:11:43.939Z,14.70
2019-04-05T08:14:18.163Z,15.10
2019-04-05T08:16:50.273Z,15.50
2019-04-05T08:19:21.015Z,15.80
2019-04-05T08:21:51.653Z,16.40
2019-04-05T08:24:22.295Z,16.80
2019-04-05T08:26:54.124Z,17.40
2019-04-05T08:29:25.007Z,17.90
2019-04-05T08:31:55.720Z,18.30
2019-04-05T08:34:26.358Z,18.70
2019-04-05T08:36:58.098Z,19.80
2019-04-05T08:39:28.752Z,20.70
2019-04-05T08:41:59.480Z,21.90
2019-04-05T08:44:30.224Z,22.90
2019-04-05T08:47:01.863Z,23.80
2019-04-05T08:49:32.618Z,23.90
2019-04-05T08:52:03.129Z,24.10
2019-04-05T08:54:36.616Z,24.10
2019-04-05T08:57:07.356Z,23.30
2019-04-05T08:59:38.111Z,23.00
2019-04-05T09:02:08.726Z,22.50
2019-04-05T09:04:39.374Z,22.00
2019-04-05T09:07:10.999Z,21.20
2019-04-05T09:09:41.655Z,20.40
2019-04-05T09:12:12.331Z,19.90
2019-04-05T09:14:43.057Z,19.50
2019-04-05T09:17:25.582Z,18.90
2019-04-05T09:19:56.361Z,18.70
2019-04-05T09:22:27.039Z,18.50
2019-04-05T09:24:57.808Z,18.60
2019-04-05T09:27:29.410Z,18.90
2019-04-05T09:30:00.067Z,19.20
2019-04-05T09:32:30.717Z,19.50
2019-04-05T09:35:01.445Z,19.70
2019-04-05T09:37:33.158Z,19.70
2019-04-05T09:40:05.095Z,19.60
2019-04-05T09:42:35.748Z,19.70
2019-04-05T09:45:07.663Z,19.70
2019-04-05T09:47:39.276Z,19.60
2019-04-05T09:50:10.736Z,19.50
2019-04-05T09:52:41.452Z,19.50
2019-04-05T09:55:12.227Z,19.70
2019-04-05T09:57:43.907Z,19.70
2019-04-05T10:00:20.582Z,19.80
2019-04-05T10:02:51.101Z,19.70
2019-04-05T10:05:21.793Z,19.80
2019-04-05T10:07:55.193Z,19.90
2019-04-05T10:10:25.463Z,20.20
2019-04-05T10:12:57.295Z,20.30
2019-04-05T10:15:28.069Z,20.40
2019-04-05T10:17:58.764Z,20.40
2019-04-05T10:20:29.469Z,20.40
2019-04-05T10:22:59.996Z,20.50
2019-04-05T10:25:30.708Z,20.50
2019-04-05T10:28:01.375Z,20.50
2019-04-05T10:30:32.187Z,20.70
2019-04-05T10:33:02.809Z,20.70
2019-04-05T10:35:33.468Z,20.70
2019-04-05T10:38:04.209Z,20.80
2019-04-05T10:40:34.970Z,20.70
2019-04-05T10:43:07.629Z,20.30
2019-04-05T10:45:38.277Z,20.20
2019-04-05T10:48:11.179Z,19.80
2019-04-05T10:50:41.848Z,19.80
2019-04-05T10:53:12.500Z,19.40
2019-04-05T10:55:43.370Z,19.30
2019-04-05T10:58:16.159Z,19.20
2019-04-05T11:00:47.007Z,19.20
2019-04-05T11:03:17.631Z,18.90
2019-04-05T11:05:49.408Z,18.70
2019-04-05T11:08:20.385Z,18.80
2019-04-05T11:10:51.031Z,18.80
2019-04-05T11:13:21.637Z,18.90
2019-04-05T11:15:52.272Z,18.90
2019-04-05T11:18:23.082Z,19.00
2019-04-05T11:20:53.695Z,19.20
2019-04-05T11:23:24.217Z,19.30
2019-04-05T11:25:54.926Z,19.30
2019-04-05T11:28:25.522Z,19.50
2019-04-05T11:30:56.228Z,19.60
2019-04-05T11:33:26.814Z,19.80
2019-04-05T11:35:58.062Z,20.00
2019-04-05T11:38:29.522Z,19.90
2019-04-05T11:41:00.651Z,19.80
2019-04-05T11:43:34.084Z,19.70
2019-04-05T11:46:05.010Z,19.50
2019-04-05T11:48:41.812Z,19.40
2019-04-05T11:51:14.475Z,19.50
2019-04-05T11:53:45.320Z,19.40
2019-04-05T11:56:19.742Z,19.30
2019-04-05T11:58:49.602Z,19.20
2019-04-05T12:01:24.629Z,19.00
2019-04-05T12:03:55.246Z,18.90
2019-04-05T12:06:25.848Z,19.00
2019-04-05T12:08:56.480Z,19.00
2019-04-05T12:11:27.204Z,19.20
2019-04-05T12:13:57.873Z,19.00
2019-04-05T12:16:29.659Z,19.00
2019-04-05T12:19:00.251Z,19.00
2019-04-05T12:21:32.617Z,19.00
2019-04-05T12:24:03.454Z,18.90
2019-04-05T12:26:35.261Z,18.90
2019-04-05T12:29:06.060Z,18.80
2019-04-05T12:31:36.695Z,18.70
2019-04-05T12:34:07.468Z,18.70
2019-04-05T12:36:39.185Z,18.80
2019-04-05T12:39:09.704Z,18.90
2019-04-05T12:41:40.939Z,18.90
2019-04-05T12:44:15.125Z,18.90
2019-04-05T12:46:46.280Z,18.80
2019-04-05T12:49:16.924Z,18.70
2019-04-05T12:51:47.803Z,18.70
2019-04-05T12:54:18.320Z,18.60
2019-04-05T12:56:50.191Z,18.40
2019-04-05T12:59:20.885Z,18.40
2019-04-05T13:01:51.648Z,18.40
2019-04-05T13:04:22.181Z,18.40
2019-04-05T13:06:53.703Z,18.50
2019-04-05T13:09:24.703Z,18.40
2019-04-05T13:11:57.274Z,18.70
2019-04-05T13:14:27.952Z,18.80
2019-04-05T13:17:02.632Z,18.90
2019-04-05T13:19:31.949Z,18.60
2019-04-05T13:22:03.498Z,18.60
2019-04-05T13:24:34.200Z,18.50
2019-04-05T13:27:05.445Z,18.30
2019-04-05T13:29:35.948Z,18.10
2019-04-05T13:32:06.556Z,18.00
2019-04-05T13:34:37.142Z,18.10
2019-04-05T13:37:19.539Z,17.90
2019-04-05T13:39:40.200Z,17.80
2019-04-05T13:42:10.912Z,17.90
2019-04-05T13:44:42.593Z,17.90
2019-04-05T13:47:13.366Z,18.00
2019-04-05T13:49:43.890Z,18.10
2019-04-05T13:52:14.535Z,18.10
2019-04-05T13:54:45.253Z,18.00
2019-04-05T13:57:16.194Z,17.90
2019-04-05T13:59:46.799Z,17.80
2019-04-05T14:02:20.549Z,17.80
2019-04-05T14:04:53.301Z,17.70
2019-04-05T14:07:24.535Z,17.70
2019-04-05T14:09:54.235Z,17.80
2019-04-05T14:12:25.867Z,17.80
2019-04-05T14:14:56.373Z,17.80
2019-04-05T14:17:28.100Z,17.80
2019-04-05T14:19:58.636Z,17.60
2019-04-05T14:22:29.375Z,17.60
2019-04-05T14:25:00.077Z,17.50
2019-04-05T14:27:34.796Z,17.40
2019-04-05T14:30:05.306Z,17.30
2019-04-05T14:32:35.948Z,17.20
2019-04-05T14:35:08.369Z,17.10
2019-04-05T14:37:39.083Z,17.10
2019-04-05T14:40:10.292Z,17.30
2019-04-05T14:42:42.599Z,17.40
2019-04-05T14:45:14.236Z,17.50
2019-04-05T14:47:44.877Z,17.40
2019-04-05T14:50:16.226Z,17.50
2019-04-05T14:52:49.463Z,17.50
2019-04-05T14:55:19.169Z,17.60
2019-04-05T14:57:51.011Z,17.50
2019-04-05T15:00:21.715Z,17.60
2019-04-05T15:02:52.340Z,17.60
2019-04-05T15:05:22.850Z,17.70
2019-04-05T15:07:55.062Z,17.60
2019-04-05T15:10:26.229Z,17.60
2019-04-05T15:12:57.114Z,17.50
2019-04-05T15:15:27.633Z,17.50
2019-04-05T15:17:59.255Z,17.50
2019-04-05T15:20:29.903Z,17.30
2019-04-05T15:23:00.610Z,17.40
2019-04-05T15:25:31.145Z,17.30
2019-04-05T15:28:02.991Z,17.20
2019-04-05T15:30:33.529Z,17.20
2019-04-05T15:33:04.691Z,17.20
2019-04-05T15:35:35.275Z,17.20
2019-04-05T15:38:06.943Z,17.20
2019-04-05T15:40:37.575Z,17.10
2019-04-05T15:43:08.420Z,17.10
2019-04-05T15:45:42.581Z,17.10
2019-04-05T15:48:13.252Z,17.20
2019-04-05T15:50:43.786Z,17.20
2019-04-05T15:53:14.410Z,17.30
2019-04-05T15:55:44.933Z,17.30
2019-04-05T15:58:15.691Z,17.20
2019-04-05T16:00:46.462Z,17.20
2019-04-05T16:03:17.515Z,17.00
2019-04-05T16:05:48.368Z,17.00
2019-04-05T16:08:20.057Z,17.00
2019-04-05T16:10:50.596Z,16.80
2019-04-05T16:13:21.320Z,16.80
2019-04-05T16:15:51.863Z,16.70
2019-04-05T16:18:23.491Z,16.70
2019-04-05T16:20:54.054Z,16.70
2019-04-05T16:23:24.790Z,16.60
2019-04-05T16:25:55.304Z,16.70
2019-04-05T16:28:27.138Z,16.60
2019-04-05T16:30:58.760Z,16.60
2019-04-05T16:33:29.387Z,16.60
2019-04-05T16:35:59.914Z,16.50
2019-04-05T16:38:30.561Z,16.40
2019-04-05T16:41:01.198Z,16.40
2019-04-05T16:43:31.915Z,16.30
2019-04-05T16:46:02.557Z,16.30
2019-04-05T16:48:33.337Z,16.20
2019-04-05T16:51:04.045Z,16.20
2019-04-05T16:53:35.078Z,16.10
2019-04-05T16:56:05.833Z,16.10
2019-04-05T16:58:36.644Z,16.10
2019-04-05T17:01:07.333Z,16.00
2019-04-05T17:03:38.071Z,15.90
2019-04-05T17:06:08.632Z,15.80
2019-04-05T17:08:39.350Z,15.80
2019-04-05T17:11:09.912Z,15.70
2019-04-05T17:13:40.563Z,15.60
2019-04-05T17:16:11.073Z,15.50
2019-04-05T17:18:41.823Z,15.50
2019-04-05T17:21:12.634Z,15.40
2019-04-05T17:23:43.375Z,15.50
2019-04-05T17:26:13.912Z,15.50
2019-04-05T17:28:45.619Z,15.40
2019-04-05T17:31:16.158Z,15.40
2019-04-05T17:33:46.965Z,15.30
2019-04-05T17:36:17.522Z,15.30
2019-04-05T17:38:48.159Z,15.30
2019-04-05T17:41:18.802Z,15.30
2019-04-05T17:43:49.647Z,15.30
2019-04-05T17:46:22.451Z,15.30
2019-04-05T17:48:54.400Z,15.30
2019-04-05T17:51:25.225Z,15.20
2019-04-05T17:53:55.988Z,15.10
2019-04-05T17:56:27.155Z,15.10
2019-04-05T17:58:58.244Z,15.00
2019-04-05T18:01:29.064Z,15.00
2019-04-05T18:03:59.706Z,15.00
2019-04-05T18:06:31.491Z,15.00
2019-04-05T18:09:03.470Z,14.90
2019-04-05T18:11:35.444Z,14.90
2019-04-05T18:14:06.104Z,14.80
2019-04-05T18:16:36.804Z,14.70
2019-04-05T18:19:08.001Z,14.70
2019-04-05T18:21:39.103Z,14.60
2019-04-05T18:24:10.968Z,14.60
2019-04-05T18:26:42.119Z,14.60
2019-04-05T18:29:12.915Z,14.50
2019-04-05T18:31:43.464Z,14.60
2019-04-05T18:34:14.100Z,14.50
2019-04-05T18:36:44.814Z,14.50
2019-04-05T18:39:15.563Z,14.40
2019-04-05T18:41:46.117Z,14.40
2019-04-05T18:44:16.796Z,14.30
2019-04-05T18:46:49.500Z,14.40
2019-04-05T18:49:21.347Z,14.40
2019-04-05T18:51:51.908Z,14.40
2019-04-05T18:54:22.526Z,14.40
2019-04-05T18:56:53.652Z,14.30
2019-04-05T18:59:24.454Z,14.30
2019-04-05T19:01:55.090Z,14.30
2019-04-05T19:04:25.964Z,14.40
2019-04-05T19:06:57.714Z,14.30
2019-04-05T19:09:28.390Z,14.30
2019-04-05T19:11:59.110Z,14.40
2019-04-05T19:14:29.774Z,14.30
2019-04-05T19:17:00.845Z,14.30
2019-04-05T19:19:31.601Z,14.30
2019-04-05T19:22:02.250Z,14.30
2019-04-05T19:24:32.520Z,14.20
2019-04-05T19:27:04.292Z,14.20
2019-04-05T19:29:35.238Z,14.20
2019-04-05T19:49:54.242Z,13.90
2019-04-05T19:52:24.886Z,13.90
2019-04-05T19:54:55.549Z,13.90
2019-04-05T19:57:27.306Z,14.00
2019-04-05T19:59:58.131Z,14.00
2019-04-05T20:02:28.786Z,14.00
2019-04-05T20:05:00.694Z,14.00
2019-04-05T20:07:32.810Z,14.00
2019-04-05T20:10:03.985Z,14.10
2019-04-05T20:12:34.870Z,14.10
2019-04-05T20:15:07.419Z,14.10
2019-04-05T20:17:39.686Z,14.10
2019-04-05T20:20:11.014Z,14.10
2019-04-05T20:22:42.108Z,14.10
2019-04-05T20:25:13.131Z,14.10
2019-04-05T20:27:44.961Z,14.10
2019-04-05T20:30:15.886Z,14.10
2019-04-05T20:32:46.527Z,14.10
2019-04-05T20:35:17.213Z,14.10
2019-04-05T20:37:47.797Z,14.10
2019-04-05T20:40:18.455Z,14.10
2019-04-05T20:42:49.047Z,14.10
2019-04-05T20:45:20.011Z,14.10
2019-04-05T20:47:52.666Z,14.10
2019-04-05T20:50:23.345Z,14.10
2019-04-05T20:52:53.897Z,14.00
2019-04-05T20:55:24.643Z,14.00
2019-04-05T20:57:55.822Z,14.00
2019-04-05T21:00:26.630Z,14.00
2019-04-05T21:02:57.168Z,14.00
2019-04-05T21:05:27.827Z,14.10
2019-04-05T21:07:59.543Z,14.10
2019-04-05T21:10:30.303Z,14.10
2019-04-05T21:13:00.927Z,14.10
2019-04-05T21:15:31.627Z,14.10
2019-04-05T21:18:04.539Z,14.10
2019-04-05T21:20:35.286Z,14.00
2019-04-05T21:23:05.838Z,14.00
2019-04-05T21:25:36.563Z,14.00
2019-04-05T21:28:09.327Z,14.00
2019-04-05T21:30:40.145Z,14.00
2019-04-05T21:33:10.679Z,14.00
2019-04-05T21:35:41.413Z,13.90
2019-04-05T21:38:13.071Z,13.90
2019-04-05T21:40:43.825Z,13.90
2019-04-05T21:43:14.359Z,13.90
2019-04-05T21:45:45.008Z,13.80
2019-04-05T21:48:17.527Z,13.80
2019-04-05T21:50:48.275Z,13.80
2019-04-05T21:53:20.311Z,13.80
2019-04-05T21:55:51.064Z,13.80
2019-04-05T21:58:22.721Z,13.80
2019-04-05T22:00:55.072Z,13.70
2019-04-05T22:03:26.479Z,13.70
2019-04-05T22:05:57.282Z,13.70
2019-04-05T22:08:28.995Z,13.60
2019-04-05T22:10:59.715Z,13.60
2019-04-05T22:13:30.225Z,13.60
2019-04-05T22:16:00.856Z,13.50
2019-04-05T22:18:32.592Z,13.60
2019-04-05T22:21:03.298Z,13.50
2019-04-05T22:23:33.933Z,13.50
2019-04-05T22:26:04.669Z,13.40
2019-04-05T22:28:34.626Z,13.50
2019-04-05T22:31:05.308Z,13.50
2019-04-05T22:33:35.952Z,13.50
2019-04-05T22:36:06.692Z,13.50
2019-04-05T22:38:37.221Z,13.50
2019-04-05T22:41:07.874Z,13.40
2019-04-05T22:43:38.591Z,13.50
2019-04-05T22:46:09.203Z,13.50
2019-04-05T22:48:40.672Z,13.50
2019-04-05T22:51:11.314Z,13.50
2019-04-05T22:53:41.965Z,13.50
2019-04-05T22:56:12.687Z,13.50
2019-04-05T22:58:43.223Z,13.50
2019-04-05T23:01:13.909Z,13.50
2019-04-05T23:03:44.434Z,13.50
2019-04-05T23:06:15.117Z,13.50
2019-04-05T23:08:45.659Z,13.50
2019-04-05T23:11:16.380Z,13.50
2019-04-05T23:13:46.980Z,13.50
2019-04-05T23:16:17.625Z,13.50
2019-04-05T23:18:47.627Z,13.60
2019-04-05T23:21:18.239Z,13.50
2019-04-05T23:23:48.306Z,13.50
2019-04-05T23:26:18.942Z,13.40
2019-04-05T23:28:49.479Z,13.40
2019-04-05T23:31:20.256Z,13.50
2019-04-05T23:33:50.760Z,13.40
2019-04-05T23:36:21.401Z,13.40
2019-04-05T23:38:51.922Z,13.50
2019-04-05T23:41:22.661Z,13.40
2019-04-05T23:43:53.201Z,13.50
2019-04-05T23:46:23.944Z,13.40
2019-04-05T23:48:55.449Z,13.40
2019-04-05T23:51:26.246Z,13.40
2019-04-05T23:53:56.856Z,13.40
2019-04-05T23:56:27.494Z,13.40
2019-04-05T23:58:58.147Z,13.40
